Time;durP1;ratioP1;P1;durP2;ratioP2;P2;SDS_P1;SDS_P2;PMS_P1;PMS_P2;Temp;Humidity;BMP_temperature;BMP_pressure;BME280_temperature;BME280_humidity;BME280_pressure;Samples;Min_cycle;Max_cycle;Signal;HPM_P1;HPM_P2
2021/11/23 00:00:00;;;;;;;;;;;;;;;11.67;54.05;101821.56;5003556;27;98632;-65
2021/11/23 00:02:26;;;;;;;;;;;;;;;11.66;54.03;101819.94;5002541;27;98895;-58
2021/11/23 00:04:53;;;;;;;;;;;;;;;11.66;54.22;101828.84;5002255;27;112659;-57
2021/11/23 00:07:19;;;;;;;;;;;;;;;11.65;54.29;101824.50;5002227;27;98730;-65
2021/11/23 00:09:45;;;;;;;;;;;;;;;11.64;54.05;101824.75;5003173;27;128603;-65
2021/11/23 00:12:11;;;;;;;;;;;;;;;11.64;54.01;101814.78;5001556;27;127558;-65
2021/11/23 00:14:36;;;;;;;;;;;;;;;11.63;54.20;101821.25;5002301;27;116392;-58
2021/11/23 00:17:02;;;;;;;;;;;;;;;11.63;53.96;101820.41;5002861;27;100451;-58
2021/11/23 00:19:28;;;;;;;;;;;;;;;11.62;53.89;101816.88;4984914;27;100393;-65
2021/11/23 00:21:54;;;;;;;;;;;;;;;11.60;53.88;101813.63;5002270;27;128162;-65
2021/11/23 00:24:20;;;;;;;;;;;;;;;11.60;54.18;101820.91;5001775;27;126565;-58
2021/11/23 00:26:46;;;;;;;;;;;;;;;11.60;54.22;101837.13;5001696;27;117635;-57
2021/11/23 00:29:12;;;;;;;;;;;;;;;11.58;54.23;101833.81;5001075;27;128504;-57
2021/11/23 00:31:38;;;;;;;;;;;;;;;11.58;54.24;101831.13;4983861;27;102593;-57
2021/11/23 00:34:04;;;;;;;;;;;;;;;11.55;54.24;101835.97;5002516;27;98279;-65
2021/11/23 00:36:30;;;;;;;;;;;;;;;11.56;53.92;101834.06;5002188;27;117568;-65
2021/11/23 00:38:56;;;;;;;;;;;;;;;11.53;53.98;101829.97;5002609;27;98135;-65
2021/11/23 00:41:22;;;;;;;;;;;;;;;11.53;54.11;101831.84;5002776;27;99428;-65
2021/11/23 00:43:48;;;;;;;;;;;;;;;11.52;54.19;101822.09;5002550;27;100380;-57
2021/11/23 00:46:15;;;;;;;;;;;;;;;11.52;54.15;101824.81;5002224;27;108280;-57
2021/11/23 00:48:41;;;;;;;;;;;;;;;11.51;53.96;101823.16;5002225;27;115619;-58
2021/11/23 00:51:07;;;;;;;;;;;;;;;11.50;54.24;101832.31;5002110;27;127690;-58
2021/11/23 00:53:33;;;;;;;;;;;;;;;11.48;54.15;101831.75;5000486;27;128461;-57
2021/11/23 00:56:00;;;;;;;;;;;;;;;11.47;54.11;101835.50;4984088;27;98175;-65
2021/11/23 00:58:26;;;;;;;;;;;;;;;11.43;54.10;101837.03;5001816;27;114337;-65
2021/11/23 01:00:52;;;;;;;;;;;;;;;11.41;54.28;101844.56;5001526;27;126935;-64
2021/11/23 01:03:19;;;;;;;;;;;;;;;11.38;53.79;101835.06;5001784;27;117419;-57
2021/11/23 01:05:46;;;;;;;;;;;;;;;11.36;54.11;101839.03;5002148;27;98111;-57
2021/11/23 01:08:13;;;;;;;;;;;;;;;11.34;53.85;101833.09;5001608;27;99265;-65
2021/11/23 01:10:39;;;;;;;;;;;;;;;11.31;54.16;101834.38;5002606;27;98681;-65
2021/11/23 01:13:05;;;;;;;;;;;;;;;11.29;54.21;101826.53;5001739;27;101537;-57
2021/11/23 01:15:31;;;;;;;;;;;;;;;11.27;54.04;101822.41;5003054;27;97963;-65
2021/11/23 01:17:57;;;;;;;;;;;;;;;11.26;54.19;101818.06;5001148;27;127080;-65
2021/11/23 01:20:23;;;;;;;;;;;;;;;11.25;54.19;101814.56;5002520;27;98373;-65
2021/11/23 01:22:50;;;;;;;;;;;;;;;11.24;53.75;101817.50;5001740;27;97967;-65
2021/11/23 01:25:16;;;;;;;;;;;;;;;11.22;53.93;101815.03;5002868;27;115443;-57
2021/11/23 01:27:42;;;;;;;;;;;;;;;11.21;53.88;101815.28;5002252;27;104431;-57
2021/11/23 01:30:09;;;;;;;;;;;;;;;11.21;54.06;101815.28;5001089;27;127763;-64
2021/11/23 01:32:36;;;;;;;;;;;;;;;11.18;54.34;101810.34;5000845;27;116626;-57
2021/11/23 01:35:02;;;;;;;;;;;;;;;11.17;54.32;101809.53;4951041;28;98149;-66
2021/11/23 01:37:28;;;;;;;;;;;;;;;11.16;53.93;101798.97;4982313;28;98449;-58
2021/11/23 01:39:54;;;;;;;;;;;;;;;11.15;53.84;101802.72;5001145;27;98695;-65
2021/11/23 01:42:20;;;;;;;;;;;;;;;11.14;54.04;101795.69;4982319;27;126865;-58
2021/11/23 01:44:45;;;;;;;;;;;;;;;11.11;54.35;101794.28;5001551;27;118434;-58
2021/11/23 01:47:11;;;;;;;;;;;;;;;11.11;54.26;101802.38;5001194;27;128810;-65
2021/11/23 01:49:37;;;;;;;;;;;;;;;11.09;54.23;101801.81;5000658;27;127869;-57
2021/11/23 01:52:03;;;;;;;;;;;;;;;11.08;54.01;101792.06;4982302;27;122138;-58
2021/11/23 01:54:29;;;;;;;;;;;;;;;11.08;53.87;101794.75;5001748;27;109084;-57
2021/11/23 01:56:55;;;;;;;;;;;;;;;11.06;53.87;101792.31;5000449;27;126042;-57
2021/11/23 01:59:21;;;;;;;;;;;;;;;11.06;53.80;101796.88;5001936;27;97864;-65
2021/11/23 02:01:47;;;;;;;;;;;;;;;11.04;54.23;101797.13;5000724;27;126288;-57
2021/11/23 02:04:13;;;;;;;;;;;;;;;11.03;53.85;101794.66;5001637;27;116638;-66
2021/11/23 02:06:39;;;;;;;;;;;;;;;11.03;53.95;101800.88;5000115;27;127944;-57
2021/11/23 02:09:05;;;;;;;;;;;;;;;11.02;54.44;101798.44;5001268;27;97894;-65
2021/11/23 02:11:31;;;;;;;;;;;;;;;11.00;54.28;101804.06;4999448;27;128097;-65
2021/11/23 02:13:57;;;;;;;;;;;;;;;11.01;53.87;101796.78;4999722;27;117744;-65
2021/11/23 02:16:23;;;;;;;;;;;;;;;10.99;54.40;101793.50;4966463;27;98124;-65
2021/11/23 02:18:49;;;;;;;;;;;;;;;10.99;53.88;101798.91;4982418;27;110133;-57
2021/11/23 02:21:15;;;;;;;;;;;;;;;10.99;53.92;101793.50;5001120;27;113387;-58
2021/11/23 02:23:41;;;;;;;;;;;;;;;10.97;53.94;101788.34;5002056;27;97888;-65
2021/11/23 02:26:07;;;;;;;;;;;;;;;10.97;54.33;101801.84;5001836;27;101623;-65
2021/11/23 02:28:33;;;;;;;;;;;;;;;10.97;54.05;101798.31;5000575;27;101689;-65
2021/11/23 02:30:59;;;;;;;;;;;;;;;10.96;53.73;101800.19;5000844;27;117177;-58
2021/11/23 02:33:27;;;;;;;;;;;;;;;10.96;53.89;101804.75;5001460;27;97936;-57
2021/11/23 02:35:56;;;;;;;;;;;;;;;10.96;54.07;101804.75;5001217;27;98250;-57
2021/11/23 02:38:23;;;;;;;;;;;;;;;10.95;53.89;101801.25;5000459;27;98396;-57
2021/11/23 02:40:49;;;;;;;;;;;;;;;10.94;54.62;101796.91;5003071;27;109895;-65
2021/11/23 02:43:16;;;;;;;;;;;;;;;10.94;54.04;101807.72;5005501;27;98009;-65
2021/11/23 02:45:41;;;;;;;;;;;;;;;10.94;54.00;101810.41;4985801;27;98543;-57
2021/11/23 02:48:09;;;;;;;;;;;;;;;10.93;54.52;101802.56;5004175;27;128170;-57
2021/11/23 02:50:35;;;;;;;;;;;;;;;10.93;54.48;101810.66;5004686;27;98182;-65
2021/11/23 02:53:01;;;;;;;;;;;;;;;10.92;54.08;101800.91;5003499;27;99233;-57
2021/11/23 02:55:29;;;;;;;;;;;;;;;10.91;54.19;101810.88;5003059;27;128744;-57
2021/11/23 02:57:55;;;;;;;;;;;;;;;10.90;53.99;101803.84;5004361;27;97928;-57
2021/11/23 03:00:25;;;;;;;;;;;;;;;10.90;54.41;101811.94;5002903;27;129102;-57
2021/11/23 03:02:52;;;;;;;;;;;;;;;10.90;54.67;101817.34;5003756;27;97904;-57
2021/11/23 03:05:19;;;;;;;;;;;;;;;10.89;54.21;101815.69;5004309;27;99090;-57
2021/11/23 03:07:46;;;;;;;;;;;;;;;10.89;54.24;101814.88;5004574;27;98981;-57
2021/11/23 03:10:12;;;;;;;;;;;;;;;10.88;54.10;101821.31;5003632;27;97770;-65
2021/11/23 03:12:38;;;;;;;;;;;;;;;10.88;54.56;101822.13;5004113;27;110425;-65
2021/11/23 03:15:05;;;;;;;;;;;;;;;10.87;53.99;101823.19;5003679;27;120568;-65
2021/11/23 03:17:31;;;;;;;;;;;;;;;10.87;54.62;101825.91;5003785;27;98678;-65
2021/11/23 03:19:57;;;;;;;;;;;;;;;10.88;54.69;101818.63;5003042;27;126729;-65
2021/11/23 03:22:23;;;;;;;;;;;;;;;10.87;54.35;101822.38;5003917;27;101603;-57
2021/11/23 03:24:49;;;;;;;;;;;;;;;10.85;54.28;101811.84;5003398;27;128418;-58
2021/11/23 03:27:15;;;;;;;;;;;;;;;10.85;54.20;101816.41;5004160;27;98781;-57
2021/11/23 03:29:41;;;;;;;;;;;;;;;10.84;54.01;101809.34;5003915;27;98387;-57
2021/11/23 03:32:08;;;;;;;;;;;;;;;10.84;54.34;101802.06;5002884;27;105673;-58
2021/11/23 03:34:40;;;;;;;;;;;;;;;10.82;54.64;101801.50;5003156;27;99152;-65
2021/11/23 03:37:09;;;;;;;;;;;;;;;10.81;54.31;101794.47;5002943;27;99160;-57
2021/11/23 03:39:36;;;;;;;;;;;;;;;10.82;54.23;101791.53;5003163;27;98064;-66
2021/11/23 03:42:02;;;;;;;;;;;;;;;10.81;54.76;101786.38;5003048;27;97825;-65
2021/11/23 03:44:28;;;;;;;;;;;;;;;10.82;54.68;101785.31;5003275;27;98879;-65
2021/11/23 03:46:54;;;;;;;;;;;;;;;10.80;54.24;101779.34;5003047;27;127946;-64
2021/11/23 03:49:20;;;;;;;;;;;;;;;10.80;54.44;101776.63;5012433;27;98056;-65
2021/11/23 03:51:46;;;;;;;;;;;;;;;10.79;54.28;101775.00;5002958;27;97844;-57
2021/11/23 03:54:12;;;;;;;;;;;;;;;10.79;54.17;101772.31;5003093;27;128179;-65
2021/11/23 03:56:40;;;;;;;;;;;;;;;10.79;54.21;101766.91;5002593;27;125547;-65
2021/11/23 03:59:06;;;;;;;;;;;;;;;10.78;54.50;101763.41;4985403;27;97938;-57
2021/11/23 04:01:32;;;;;;;;;;;;;;;10.77;54.75;101767.16;5003990;27;97871;-57
2021/11/23 04:03:58;;;;;;;;;;;;;;;10.77;54.13;101758.25;4983078;27;128272;-57
2021/11/23 04:06:24;;;;;;;;;;;;;;;10.76;54.45;101762.81;4984122;27;118096;-64
2021/11/23 04:08:50;;;;;;;;;;;;;;;10.75;54.09;101769.25;4983079;27;128429;-65
2021/11/23 04:11:16;;;;;;;;;;;;;;;10.76;54.14;101772.78;5003192;27;107045;-57
2021/11/23 04:13:43;;;;;;;;;;;;;;;10.74;54.67;101770.31;5002348;27;128451;-65
2021/11/23 04:16:09;;;;;;;;;;;;;;;10.74;54.16;101764.13;5003648;27;98346;-65
2021/11/23 04:18:35;;;;;;;;;;;;;;;10.73;54.11;101759.78;5002463;27;119693;-65
2021/11/23 04:21:02;;;;;;;;;;;;;;;10.74;54.73;101756.03;5003330;27;107464;-65
2021/11/23 04:23:28;;;;;;;;;;;;;;;10.73;54.23;101759.78;5003027;27;98638;-57
2021/11/23 04:25:54;;;;;;;;;;;;;;;10.73;54.78;101754.41;4984215;27;98871;-58
2021/11/23 04:28:20;;;;;;;;;;;;;;;10.72;54.84;101763.50;4966503;27;123173;-65
2021/11/23 04:30:46;;;;;;;;;;;;;;;10.72;54.82;101761.63;4984471;27;98023;-58
2021/11/23 04:33:14;;;;;;;;;;;;;;;10.72;54.76;101760.81;4983116;27;115159;-65
2021/11/23 04:35:40;;;;;;;;;;;;;;;10.73;54.23;101762.47;5003152;27;98093;-65
2021/11/23 04:38:08;;;;;;;;;;;;;;;10.72;54.81;101755.44;4984475;27;99300;-58
2021/11/23 04:40:34;;;;;;;;;;;;;;;10.71;54.68;101761.88;5001943;27;97922;-65
2021/11/23 04:43:01;;;;;;;;;;;;;;;10.71;54.69;101756.50;5001692;27;128246;-65
2021/11/23 04:45:28;;;;;;;;;;;;;;;10.71;54.54;101753.78;5003281;27;98900;-65
2021/11/23 04:47:54;;;;;;;;;;;;;;;10.75;54.69;101752.25;5003435;27;98969;-57
2021/11/23 04:50:20;;;;;;;;;;;;;;;10.85;54.47;101755.19;5002511;27;97864;-57
2021/11/23 04:52:46;;;;;;;;;;;;;;;10.92;54.30;101752.34;5001650;27;109563;-57
2021/11/23 04:55:12;;;;;;;;;;;;;;;10.96;54.22;101751.63;5003605;27;98312;-57
2021/11/23 04:57:38;;;;;;;;;;;;;;;11.02;54.57;101752.56;5001152;27;121884;-57
2021/11/23 05:00:05;;;;;;;;;;;;;;;11.06;54.70;101759.94;5002954;27;97977;-57
2021/11/23 05:02:30;;;;;;;;;;;;;;;11.10;54.27;101749.47;5001748;27;104346;-57
2021/11/23 05:04:56;;;;;;;;;;;;;;;11.13;54.45;101750.88;5001735;27;127844;-57
2021/11/23 05:07:22;;;;;;;;;;;;;;;11.14;54.43;101747.13;5001987;27;97720;-65
2021/11/23 05:09:48;;;;;;;;;;;;;;;11.16;54.42;101737.75;5003007;27;117580;-57
2021/11/23 05:12:14;;;;;;;;;;;;;;;11.18;53.90;101748.28;5000489;27;129375;-64
2021/11/23 05:14:40;;;;;;;;;;;;;;;11.18;54.05;101746.41;5001885;27;129388;-58
2021/11/23 05:17:06;;;;;;;;;;;;;;;11.20;54.09;101738.06;5000576;27;127464;-57
2021/11/23 05:19:32;;;;;;;;;;;;;;;11.19;54.37;101736.41;5002743;27;98027;-58
2021/11/23 05:22:02;;;;;;;;;;;;;;;11.20;54.21;101732.66;5001341;27;98804;-65
2021/11/23 05:24:28;;;;;;;;;;;;;;;11.19;54.46;101736.41;5000002;27;98640;-58
2021/11/23 05:26:54;;;;;;;;;;;;;;;11.19;54.22;101744.50;4978975;28;126925;-58
2021/11/23 05:29:20;;;;;;;;;;;;;;;11.19;54.08;101734.53;4986896;27;118275;-58
2021/11/23 05:31:46;;;;;;;;;;;;;;;11.18;54.32;101737.47;4999231;27;129277;-58
2021/11/23 05:34:12;;;;;;;;;;;;;;;11.18;54.27;101732.09;5000054;27;128164;-58
2021/11/23 05:36:37;;;;;;;;;;;;;;;11.17;54.36;101739.38;5000351;27;127516;-57
2021/11/23 05:39:04;;;;;;;;;;;;;;;11.18;53.99;101749.09;5000562;27;117606;-58
2021/11/23 05:41:30;;;;;;;;;;;;;;;11.14;53.89;101742.53;5001151;27;99074;-58
2021/11/23 05:43:56;;;;;;;;;;;;;;;11.17;54.28;101746.66;5000050;27;113014;-58
2021/11/23 05:46:22;;;;;;;;;;;;;;;11.16;53.97;101751.22;5001733;27;98091;-57
2021/11/23 05:48:48;;;;;;;;;;;;;;;11.15;54.01;101746.88;4999675;27;119052;-58
2021/11/23 05:51:14;;;;;;;;;;;;;;;11.15;54.08;101741.47;5000331;27;102774;-58
2021/11/23 05:53:40;;;;;;;;;;;;;;;11.15;54.12;101743.34;5000025;27;127416;-57
2021/11/23 05:56:06;;;;;;;;;;;;;;;11.14;54.07;101737.16;5001102;27;112406;-58
2021/11/23 05:58:32;;;;;;;;;;;;;;;11.15;54.02;101737.97;5000449;27;110644;-58
2021/11/23 06:00:58;;;;;;;;;;;;;;;11.15;54.05;101741.47;4999573;27;128134;-58
2021/11/23 06:03:24;;;;;;;;;;;;;;;11.16;54.21;101745.00;4998522;27;123081;-58
2021/11/23 06:05:50;;;;;;;;;;;;;;;11.16;54.44;101740.44;4999834;27;126987;-57
2021/11/23 06:08:16;;;;;;;;;;;;;;;11.17;54.18;101744.75;4980619;27;116205;-57
2021/11/23 06:10:42;;;;;;;;;;;;;;;11.17;54.59;101739.38;4982385;27;99269;-57
2021/11/23 06:13:10;;;;;;;;;;;;;;;11.17;54.32;101752.88;4979537;27;127837;-58
2021/11/23 06:15:37;;;;;;;;;;;;;;;11.17;54.53;101747.47;4983263;27;98700;-58
2021/11/23 06:18:03;;;;;;;;;;;;;;;11.16;54.14;101753.94;5003500;27;98848;-57
2021/11/23 06:20:32;;;;;;;;;;;;;;;11.18;54.41;101746.41;5004010;27;98777;-58
2021/11/23 06:22:59;;;;;;;;;;;;;;;11.18;54.36;101745.59;5002925;27;108051;-58
2021/11/23 06:25:25;;;;;;;;;;;;;;;11.19;54.40;101747.22;5003755;27;106069;-58
2021/11/23 06:27:51;;;;;;;;;;;;;;;11.19;54.43;101755.31;5003710;27;98087;-57
2021/11/23 06:30:17;;;;;;;;;;;;;;;11.19;54.24;101758.00;5004903;27;98666;-57
2021/11/23 06:32:43;;;;;;;;;;;;;;;11.19;54.47;101756.13;5003062;27;99130;-57
2021/11/23 06:35:09;;;;;;;;;;;;;;;11.19;54.11;101758.00;5002720;27;128487;-57
2021/11/23 06:37:35;;;;;;;;;;;;;;;11.20;54.23;101754.25;5003534;27;97945;-58
2021/11/23 06:40:01;;;;;;;;;;;;;;;11.23;54.35;101761.88;5003549;27;99471;-57
2021/11/23 06:42:26;;;;;;;;;;;;;;;11.25;54.26;101763.28;5003897;27;99492;-57
2021/11/23 06:44:52;;;;;;;;;;;;;;;11.27;54.09;101771.13;5003626;27;124438;-58
2021/11/23 06:47:18;;;;;;;;;;;;;;;11.27;54.03;101769.25;5004046;27;98220;-57
2021/11/23 06:49:45;;;;;;;;;;;;;;;11.29;54.01;101759.03;5003255;27;114522;-58
2021/11/23 06:52:11;;;;;;;;;;;;;;;11.31;54.29;101758.78;5003486;27;98843;-58
2021/11/23 06:54:37;;;;;;;;;;;;;;;11.33;53.98;101764.78;5003884;27;98476;-58
2021/11/23 06:57:03;;;;;;;;;;;;;;;11.36;54.19;101766.16;5003655;27;97982;-58
2021/11/23 06:59:29;;;;;;;;;;;;;;;11.39;54.18;101771.06;5000570;27;103124;-58
2021/11/23 07:01:55;;;;;;;;;;;;;;;11.41;54.17;101774.38;5003302;27;104153;-57
2021/11/23 07:04:21;;;;;;;;;;;;;;;11.42;53.91;101779.53;5002273;27;126905;-58
2021/11/23 07:06:48;;;;;;;;;;;;;;;11.43;54.02;101777.63;5003799;27;97954;-57
2021/11/23 07:09:15;;;;;;;;;;;;;;;11.44;53.96;101773.91;5003475;27;98647;-58
2021/11/23 07:11:41;;;;;;;;;;;;;;;11.50;54.37;101778.31;5004320;27;98258;-57
2021/11/23 07:14:07;;;;;;;;;;;;;;;11.54;54.41;101777.59;5002444;27;121199;-57
2021/11/23 07:16:36;;;;;;;;;;;;;;;11.58;54.20;101785.22;5004451;27;97978;-58
2021/11/23 07:19:02;;;;;;;;;;;;;;;11.63;53.86;101775.34;5003974;27;127991;-58
2021/11/23 07:21:28;;;;;;;;;;;;;;;11.69;54.01;101782.44;5002618;27;129120;-58
2021/11/23 07:23:54;;;;;;;;;;;;;;;11.74;54.14;101776.31;5002756;27;127532;-64
2021/11/23 07:26:20;;;;;;;;;;;;;;;11.81;53.78;101782.38;5003339;27;104605;-66
2021/11/23 07:28:46;;;;;;;;;;;;;;;11.90;53.78;101788.22;5001209;27;98911;-66
2021/11/23 07:31:12;;;;;;;;;;;;;;;11.98;53.86;101788.66;4999681;27;128988;-66
2021/11/23 07:33:38;;;;;;;;;;;;;;;12.00;53.94;101785.72;4999886;27;127986;-59
2021/11/23 07:36:04;;;;;;;;;;;;;;;12.07;53.88;101796.38;5000744;27;97998;-66
2021/11/23 07:38:30;;;;;;;;;;;;;;;12.05;53.77;101793.91;4998343;27;128794;-58
2021/11/23 07:40:56;;;;;;;;;;;;;;;12.02;54.07;101795.22;4999149;27;118965;-58
2021/11/23 07:43:22;;;;;;;;;;;;;;;12.02;54.07;101795.22;4991319;27;103119;-58
2021/11/23 07:45:48;;;;;;;;;;;;;;;12.02;54.11;101787.13;4999452;27;117709;-58
2021/11/23 07:48:14;;;;;;;;;;;;;;;12.02;54.19;101787.13;4998885;27;128022;-58
2021/11/23 07:50:40;;;;;;;;;;;;;;;12.02;54.28;101786.28;4998830;27;98315;-58
2021/11/23 07:53:07;;;;;;;;;;;;;;;12.00;54.49;101789.22;4998697;27;98204;-58
2021/11/23 07:55:34;;;;;;;;;;;;;;;11.99;54.35;101782.19;4999630;27;98171;-58
2021/11/23 07:58:00;;;;;;;;;;;;;;;11.99;54.51;101774.09;4999591;27;98491;-58
2021/11/23 08:00:26;;;;;;;;;;;;;;;12.00;54.52;101788.41;4980646;27;98997;-58
2021/11/23 08:02:53;;;;;;;;;;;;;;;12.01;54.41;101793.56;4998815;27;98181;-58
2021/11/23 08:05:19;;;;;;;;;;;;;;;12.02;54.49;101792.53;4999839;27;97932;-58
2021/11/23 08:07:45;;;;;;;;;;;;;;;12.03;54.46;101794.16;4996612;27;128788;-58
2021/11/23 08:10:10;;;;;;;;;;;;;;;12.05;54.50;101793.91;4993933;27;98956;-58
2021/11/23 08:12:36;;;;;;;;;;;;;;;12.05;54.76;101799.31;4978603;27;126113;-58
2021/11/23 08:15:03;;;;;;;;;;;;;;;12.05;54.62;101788.50;4999175;27;97794;-58
2021/11/23 08:17:30;;;;;;;;;;;;;;;12.07;54.65;101807.19;4998822;27;98906;-58
2021/11/23 08:19:57;;;;;;;;;;;;;;;12.09;54.94;101810.44;4998808;27;99317;-58
2021/11/23 08:22:23;;;;;;;;;;;;;;;12.08;54.76;101809.63;5000079;27;98121;-66
2021/11/23 08:24:49;;;;;;;;;;;;;;;12.10;54.86;101807.50;4988540;27;98102;-59
2021/11/23 08:27:15;;;;;;;;;;;;;;;12.13;54.95;101803.50;4998342;27;122517;-58
2021/11/23 08:29:40;;;;;;;;;;;;;;;12.15;54.75;101806.78;4998832;27;109055;-66
2021/11/23 08:32:07;;;;;;;;;;;;;;;12.16;54.84;101808.41;4980585;27;98667;-58
2021/11/23 08:34:33;;;;;;;;;;;;;;;12.19;54.86;101813.34;4999059;27;107019;-58
2021/11/23 08:37:00;;;;;;;;;;;;;;;12.21;54.78;101814.72;4999985;27;126232;-58
2021/11/23 08:39:26;;;;;;;;;;;;;;;12.24;54.73;101819.63;4999144;27;98756;-58
2021/11/23 08:41:52;;;;;;;;;;;;;;;12.27;54.81;101829.97;4997590;27;115965;-66
2021/11/23 08:44:18;;;;;;;;;;;;;;;12.28;54.87;101828.06;5000275;27;97891;-65
2021/11/23 08:46:44;;;;;;;;;;;;;;;12.29;54.98;101830.50;4981998;27;98172;-58
2021/11/23 08:49:10;;;;;;;;;;;;;;;12.32;54.87;101834.63;4999700;27;99245;-66
2021/11/23 08:51:37;;;;;;;;;;;;;;;12.32;54.85;101840.03;4999336;27;108211;-65
2021/11/23 08:54:04;;;;;;;;;;;;;;;12.33;54.92;101838.97;5000755;27;97854;-58
2021/11/23 08:56:38;;;;;;;;;;;;;;;12.33;55.10;101838.16;5000105;27;105671;-58
2021/11/23 08:59:09;;;;;;;;;;;;;;;12.32;55.10;101829.22;5000293;27;98362;-58
2021/11/23 09:01:36;;;;;;;;;;;;;;;12.32;55.30;101840.03;4999980;27;98198;-58
2021/11/23 09:04:04;;;;;;;;;;;;;;;12.32;55.31;101831.09;4999662;27;98627;-58
2021/11/23 09:06:32;;;;;;;;;;;;;;;12.33;55.33;101835.44;4999878;27;98941;-66
2021/11/23 09:08:59;;;;;;;;;;;;;;;12.33;55.26;101830.84;4998695;27;98345;-59
2021/11/23 09:11:26;;;;;;;;;;;;;;;12.34;55.31;101834.38;4999678;27;98319;-66
2021/11/23 09:13:53;;;;;;;;;;;;;;;12.36;55.38;101826.84;4998685;27;98094;-59
2021/11/23 09:16:20;;;;;;;;;;;;;;;12.37;55.38;101837.41;4999543;27;98219;-61
2021/11/23 09:18:46;;;;;;;;;;;;;;;12.36;55.63;101841.19;4998794;27;98442;-65
2021/11/23 09:21:12;;;;;;;;;;;;;;;12.36;55.49;101852.00;4981440;27;97885;-58
2021/11/23 09:23:38;;;;;;;;;;;;;;;12.37;55.49;101850.91;4999282;27;97926;-65
2021/11/23 09:26:03;;;;;;;;;;;;;;;12.36;55.70;101857.41;4980352;27;112807;-66
2021/11/23 09:28:29;;;;;;;;;;;;;;;12.36;55.77;101865.50;4997668;27;112946;-58
2021/11/23 09:30:55;;;;;;;;;;;;;;;12.36;55.61;101868.22;4997858;27;128094;-58
2021/11/23 09:33:21;;;;;;;;;;;;;;;12.34;55.88;101864.94;4998848;27;97755;-66
2021/11/23 09:35:47;;;;;;;;;;;;;;;12.32;55.77;101858.97;4997038;27;128457;-58
2021/11/23 09:38:13;;;;;;;;;;;;;;;12.32;55.78;101866.25;4998023;27;128105;-58
2021/11/23 09:40:40;;;;;;;;;;;;;;;12.29;55.97;101857.56;4999504;27;125679;-58
2021/11/23 09:43:06;;;;;;;;;;;;;;;12.29;56.13;101867.56;4998718;27;98125;-58
2021/11/23 09:45:32;;;;;;;;;;;;;;;12.27;56.26;101864.28;4998356;27;121713;-58
2021/11/23 09:48:05;;;;;;;;;;;;;;;12.25;56.10;101848.28;4998321;27;98898;-65
2021/11/23 09:50:31;;;;;;;;;;;;;;;12.25;56.27;101851.00;4979584;27;98058;-58
2021/11/23 09:52:57;;;;;;;;;;;;;;;12.26;56.40;101851.81;4999083;27;97947;-58
2021/11/23 09:55:23;;;;;;;;;;;;;;;12.26;56.23;101851.81;4998682;27;127192;-58
2021/11/23 09:57:49;;;;;;;;;;;;;;;12.29;56.12;101852.16;4978465;27;113269;-66
2021/11/23 10:00:32;;;;;;;;;;;;;;;12.33;56.19;101848.97;4980240;27;126951;-58
2021/11/23 10:03:05;;;;;;;;;;;;;;;12.34;56.13;101848.72;4992289;27;98220;-58
2021/11/23 10:05:33;;;;;;;;;;;;;;;12.38;56.19;101849.88;4998712;27;98717;-59
2021/11/23 10:08:04;;;;;;;;;;;;;;;12.40;56.33;101836.09;4997974;27;98306;-66
2021/11/23 10:10:30;;;;;;;;;;;;;;;12.43;56.21;101836.44;4979964;27;116013;-58
2021/11/23 10:13:00;;;;;;;;;;;;;;;12.47;56.22;101839.47;4964382;27;98314;-66
2021/11/23 10:15:29;;;;;;;;;;;;;;;12.47;56.34;101839.47;4996230;27;108461;-66
2021/11/23 10:18:09;;;;;;;;;;;;;;;12.48;56.44;101838.38;4997893;27;99323;-66
2021/11/23 10:20:37;;;;;;;;;;;;;;;12.47;56.42;101839.47;4982073;27;101702;-66
2021/11/23 10:23:22;;;;;;;;;;;;;;;12.46;56.16;101830.53;4991301;27;98416;-67
2021/11/23 10:25:51;;;;;;;;;;;;;;;12.45;56.60;101834.28;4991594;27;97835;-58
2021/11/23 10:28:17;;;;;;;;;;;;;;;12.46;56.37;101827.81;4998267;27;98523;-58
2021/11/23 10:30:45;;;;;;;;;;;;;;;12.49;56.43;101821.09;4998806;27;97966;-58
2021/11/23 10:33:12;;;;;;;;;;;;;;;12.52;56.62;101812.47;4998023;27;98226;-65
2021/11/23 10:35:39;;;;;;;;;;;;;;;12.55;56.31;101820.13;4999019;27;98709;-65
2021/11/23 10:38:08;;;;;;;;;;;;;;;12.60;56.32;101820.19;4999170;27;98148;-65
2021/11/23 10:40:34;;;;;;;;;;;;;;;12.63;56.30;101827.81;4998635;27;98799;-65
2021/11/23 10:43:03;;;;;;;;;;;;;;;12.67;56.13;101830.84;4979344;27;110849;-66
2021/11/23 10:45:38;;;;;;;;;;;;;;;12.72;56.43;101829.00;4998631;27;98660;-65
2021/11/23 10:48:04;;;;;;;;;;;;;;;12.75;56.23;101833.13;4999208;27;98677;-66
2021/11/23 10:50:30;;;;;;;;;;;;;;;12.78;56.34;101833.44;4998783;27;98551;-66
2021/11/23 10:53:09;;;;;;;;;;;;;;;12.82;56.24;101833.75;5000180;27;98060;-65
2021/11/23 10:55:36;;;;;;;;;;;;;;;12.83;56.30;101840.00;4998106;27;98286;-66
2021/11/23 10:58:04;;;;;;;;;;;;;;;12.86;56.51;101840.31;4999131;27;98217;-66
2021/11/23 11:00:31;;;;;;;;;;;;;;;12.87;56.04;101839.25;4998254;27;98496;-65
2021/11/23 11:03:04;;;;;;;;;;;;;;;12.89;56.27;101845.22;5002569;27;98163;-66
2021/11/23 11:05:50;;;;;;;;;;;;;;;12.87;56.54;101843.84;5002074;27;99115;-58
2021/11/23 11:08:19;;;;;;;;;;;;;;;12.85;56.75;101841.38;4994116;27;128325;-65
2021/11/23 11:10:45;;;;;;;;;;;;;;;12.85;56.82;101840.53;4977032;27;115015;-58
2021/11/23 11:13:11;;;;;;;;;;;;;;;12.84;56.65;101839.72;4998813;27;107715;-58
2021/11/23 11:15:39;;;;;;;;;;;;;;;12.86;56.64;101834.09;4982594;27;105555;-58
2021/11/23 11:18:10;;;;;;;;;;;;;;;12.85;56.65;101821.59;4991487;27;122073;-58
2021/11/23 11:20:43;;;;;;;;;;;;;;;12.87;56.98;101819.47;4983078;27;98127;-58
2021/11/23 11:23:11;;;;;;;;;;;;;;;12.85;56.76;101825.16;5001896;27;97955;-58
2021/11/23 11:26:27;;;;;;;;;;;;;;;12.86;57.15;101829.50;5000466;27;111039;-66
2021/11/23 11:28:58;;;;;;;;;;;;;;;12.84;56.92;101831.59;4944352;28;99399;-66
2021/11/23 11:31:40;;;;;;;;;;;;;;;12.86;57.26;101829.50;4993361;27;98352;-66
2021/11/23 11:34:24;;;;;;;;;;;;;;;12.90;56.95;101824.41;5000803;27;98186;-65
2021/11/23 11:37:11;;;;;;;;;;;;;;;12.94;56.69;101815.53;4981803;27;99496;-65
2021/11/23 11:39:38;;;;;;;;;;;;;;;13.00;56.86;101816.41;4976997;28;98110;-58
2021/11/23 11:42:03;;;;;;;;;;;;;;;13.09;56.55;101814.09;4986730;27;97950;-58
2021/11/23 11:44:37;;;;;;;;;;;;;;;13.21;56.37;101803.97;4984018;27;97843;-66
2021/11/23 11:47:07;;;;;;;;;;;;;;;13.33;56.37;101811.97;4980201;28;99027;-65
2021/11/23 11:50:00;;;;;;;;;;;;;;;13.38;56.40;101812.84;4988035;27;98751;-58
2021/11/23 11:52:28;;;;;;;;;;;;;;;13.38;56.37;101815.56;4981190;27;98109;-58
2021/11/23 11:55:12;;;;;;;;;;;;;;;13.36;56.86;101809.59;4986947;27;105337;-65
2021/11/23 11:57:46;;;;;;;;;;;;;;;13.36;56.65;101804.16;4965562;27;99883;-66
2021/11/23 12:00:41;;;;;;;;;;;;;;;13.39;56.82;101800.13;4993534;27;98548;-65
2021/11/23 12:03:15;;;;;;;;;;;;;;;13.38;56.96;101796.59;4982209;27;98174;-58
2021/11/23 12:05:50;;;;;;;;;;;;;;;13.41;57.10;101808.81;4987422;27;97811;-65
2021/11/23 12:08:29;;;;;;;;;;;;;;;13.40;56.74;101801.75;4983752;27;98295;-66
2021/11/23 12:10:58;;;;;;;;;;;;;;;13.39;56.86;101800.13;4987158;27;99555;-58
2021/11/23 12:13:41;;;;;;;;;;;;;;;13.35;57.32;101802.50;4968626;27;113310;-65
2021/11/23 12:16:16;;;;;;;;;;;;;;;13.33;57.42;101793.84;4962502;27;98004;-58
2021/11/23 12:18:57;;;;;;;;;;;;;;;13.30;57.45;101788.91;4972018;27;98096;-58
2021/11/23 12:21:24;;;;;;;;;;;;;;;13.29;57.23;101786.47;4969270;28;98752;-58
2021/11/23 12:23:57;;;;;;;;;;;;;;;13.29;57.44;101789.19;4986135;27;111988;-58
2021/11/23 12:26:24;;;;;;;;;;;;;;;13.27;57.48;101795.66;4994793;27;97858;-58
2021/11/23 12:28:54;;;;;;;;;;;;;;;13.26;57.75;101787.78;4977188;27;98534;-65
2021/11/23 12:31:20;;;;;;;;;;;;;;;13.24;57.38;101790.75;4987359;27;98508;-58
2021/11/23 12:33:51;;;;;;;;;;;;;;;13.22;57.68;101790.16;4978206;28;97836;-58